Las Vegas, Nevada
Traffic Map
Current Weather Conditions
Las Vegas, Nevada
Clear
Clear
39°
Feels Like: 35°
Wind Chill: 35° Ceiling: Unl
Heat Index: 39° Visibility: 10mi
Dew Point: 25° Wind: 6mph
Humidity: 57% Direction: 200° (SSW)
Pressure: 30.42in Gusts: 0mph
Raw Report DataKLAS 061356Z 20005KT 10SM CLR 04/M04 A3042 RMK AO2 SLP304 T00391039
Traffic Incident Summary
Active as of:
Severity:
Category:
InformationThere was an issue retrieving the traffic information for this location. Please try a different location or try again shortly.
Advertisements
Track Severe Weather on mobile